sensor_id;sensor_type;location;lat;lon;timestamp;pressure;altitude;pressure_sealevel;temperature;humidity
80644;BME280;70010;60.224;24.712;2023-09-08T00:00:32;102005.82;;;17.64;47.25
80644;BME280;70010;60.224;24.712;2023-09-08T00:02:58;102005.05;;;17.72;47.04
80644;BME280;70010;60.224;24.712;2023-09-08T00:05:23;102004.01;;;17.81;46.88
80644;BME280;70010;60.224;24.712;2023-09-08T00:07:48;102000.86;;;17.77;46.61
80644;BME280;70010;60.224;24.712;2023-09-08T00:10:13;101998.32;;;17.84;47.32
80644;BME280;70010;60.224;24.712;2023-09-08T00:12:39;101998.55;;;17.22;47.96
80644;BME280;70010;60.224;24.712;2023-09-08T00:15:05;101998.95;;;18.23;46.74
80644;BME280;70010;60.224;24.712;2023-09-08T00:17:29;101997.67;;;17.80;46.62
80644;BME280;70010;60.224;24.712;2023-09-08T00:19:56;101995.41;;;18.11;46.94
80644;BME280;70010;60.224;24.712;2023-09-08T00:22:19;101996.38;;;17.49;48.03
80644;BME280;70010;60.224;24.712;2023-09-08T00:24:45;101994.43;;;17.94;47.28
80644;BME280;70010;60.224;24.712;2023-09-08T00:27:10;101993.23;;;18.03;46.78
80644;BME280;70010;60.224;24.712;2023-09-08T00:29:35;101991.28;;;18.05;47.17
80644;BME280;70010;60.224;24.712;2023-09-08T00:32:00;101991.80;;;17.65;47.50
80644;BME280;70010;60.224;24.712;2023-09-08T00:34:26;101990.92;;;18.01;46.90
80644;BME280;70010;60.224;24.712;2023-09-08T00:36:51;101988.87;;;17.79;47.79
80644;BME280;70010;60.224;24.712;2023-09-08T00:39:16;101982.23;;;17.61;47.64
80644;BME280;70010;60.224;24.712;2023-09-08T00:41:41;101979.25;;;17.83;47.26
80644;BME280;70010;60.224;24.712;2023-09-08T00:44:06;101976.30;;;17.74;47.44
80644;BME280;70010;60.224;24.712;2023-09-08T00:46:32;101973.78;;;18.23;47.12
80644;BME280;70010;60.224;24.712;2023-09-08T00:48:57;101972.17;;;17.70;47.46
80644;BME280;70010;60.224;24.712;2023-09-08T00:51:22;101974.42;;;18.12;46.93
80644;BME280;70010;60.224;24.712;2023-09-08T00:53:47;101970.78;;;17.82;47.43
80644;BME280;70010;60.224;24.712;2023-09-08T00:56:12;101969.91;;;17.33;48.36
80644;BME280;70010;60.224;24.712;2023-09-08T00:58:38;101970.67;;;17.98;47.69
80644;BME280;70010;60.224;24.712;2023-09-08T01:01:03;101968.62;;;16.89;49.51
80644;BME280;70010;60.224;24.712;2023-09-08T01:03:28;101965.60;;;17.96;47.37
80644;BME280;70010;60.224;24.712;2023-09-08T01:05:54;101965.15;;;17.64;47.77
80644;BME280;70010;60.224;24.712;2023-09-08T01:08:19;101959.95;;;17.65;47.85
80644;BME280;70010;60.224;24.712;2023-09-08T01:10:45;101957.54;;;16.99;48.76
80644;BME280;70010;60.224;24.712;2023-09-08T01:13:09;101960.80;;;17.66;48.11
80644;BME280;70010;60.224;24.712;2023-09-08T01:15:34;101958.13;;;18.17;46.80
80644;BME280;70010;60.224;24.712;2023-09-08T01:17:59;101953.94;;;17.78;47.42
80644;BME280;70010;60.224;24.712;2023-09-08T01:20:27;101954.19;;;15.93;51.16
80644;BME280;70010;60.224;24.712;2023-09-08T01:23:02;101951.58;;;16.15;51.24
80644;BME280;70010;60.224;24.712;2023-09-08T01:25:18;101952.74;;;15.12;53.26
80644;BME280;70010;60.224;24.712;2023-09-08T01:27:44;101940.65;;;17.01;49.59
80644;BME280;70010;60.224;24.712;2023-09-08T01:30:07;101936.07;;;18.17;47.46
80644;BME280;70010;60.224;24.712;2023-09-08T01:32:32;101931.15;;;17.73;47.86
80644;BME280;70010;60.224;24.712;2023-09-08T01:34:57;101936.92;;;14.11;56.29
80644;BME280;70010;60.224;24.712;2023-09-08T01:37:22;101932.80;;;14.32;55.59
80644;BME280;70010;60.224;24.712;2023-09-08T01:39:47;101923.97;;;16.20;51.90
80644;BME280;70010;60.224;24.712;2023-09-08T01:42:12;101918.91;;;18.10;48.36
80644;BME280;70010;60.224;24.712;2023-09-08T01:44:37;101916.11;;;17.90;48.22
80644;BME280;70010;60.224;24.712;2023-09-08T01:47:03;101904.97;;;18.00;47.69
80644;BME280;70010;60.224;24.712;2023-09-08T01:49:28;101905.58;;;17.79;48.38
80644;BME280;70010;60.224;24.712;2023-09-08T01:51:53;101903.75;;;16.95;50.07
80644;BME280;70010;60.224;24.712;2023-09-08T01:54:18;101905.73;;;18.01;47.67
80644;BME280;70010;60.224;24.712;2023-09-08T01:56:43;101908.71;;;18.38;47.44
80644;BME280;70010;60.224;24.712;2023-09-08T01:59:09;101909.23;;;17.53;48.53
80644;BME280;70010;60.224;24.712;2023-09-08T02:01:34;101908.65;;;17.91;48.31
80644;BME280;70010;60.224;24.712;2023-09-08T02:03:59;101905.15;;;17.33;49.12
80644;BME280;70010;60.224;24.712;2023-09-08T02:06:24;101902.29;;;17.69;49.33
80644;BME280;70010;60.224;24.712;2023-09-08T02:08:50;101896.04;;;17.32;49.31
80644;BME280;70010;60.224;24.712;2023-09-08T02:11:15;101893.80;;;17.19;49.62
80644;BME280;70010;60.224;24.712;2023-09-08T02:13:42;101890.25;;;17.24;49.84
80644;BME280;70010;60.224;24.712;2023-09-08T02:16:05;101888.89;;;18.13;48.27
80644;BME280;70010;60.224;24.712;2023-09-08T02:18:31;101889.17;;;17.52;49.46
80644;BME280;70010;60.224;24.712;2023-09-08T02:20:56;101886.35;;;16.91;50.46
80644;BME280;70010;60.224;24.712;2023-09-08T02:23:21;101892.56;;;14.61;55.29
80644;BME280;70010;60.224;24.712;2023-09-08T02:25:46;101884.76;;;14.94;55.66
80644;BME280;70010;60.224;24.712;2023-09-08T02:28:11;101880.65;;;13.84;58.49
80644;BME280;70010;60.224;24.712;2023-09-08T02:30:37;101884.51;;;13.00;60.57
80644;BME280;70010;60.224;24.712;2023-09-08T02:33:02;101877.06;;;12.68;61.57
80644;BME280;70010;60.224;24.712;2023-09-08T02:35:28;101876.93;;;14.24;58.74
80644;BME280;70010;60.224;24.712;2023-09-08T02:37:53;101870.13;;;16.62;52.00
80644;BME280;70010;60.224;24.712;2023-09-08T02:40:18;101867.99;;;15.18;54.66
80644;BME280;70010;60.224;24.712;2023-09-08T02:42:44;101861.03;;;15.71;53.67
80644;BME280;70010;60.224;24.712;2023-09-08T02:45:09;101855.29;;;16.68;51.98
80644;BME280;70010;60.224;24.712;2023-09-08T02:47:34;101855.18;;;15.80;53.70
80644;BME280;70010;60.224;24.712;2023-09-08T02:49:59;101861.36;;;13.15;60.93
80644;BME280;70010;60.224;24.712;2023-09-08T02:52:24;101862.60;;;11.97;65.41
80644;BME280;70010;60.224;24.712;2023-09-08T02:54:49;101858.76;;;12.26;65.22
80644;BME280;70010;60.224;24.712;2023-09-08T02:57:15;101853.23;;;11.51;68.05
80644;BME280;70010;60.224;24.712;2023-09-08T02:59:40;101860.70;;;10.84;70.28
80644;BME280;70010;60.224;24.712;2023-09-08T03:02:05;101859.76;;;11.49;69.77
80644;BME280;70010;60.224;24.712;2023-09-08T03:04:30;101851.29;;;14.16;60.24
80644;BME280;70010;60.224;24.712;2023-09-08T03:06:56;101850.27;;;12.74;61.97
80644;BME280;70010;60.224;24.712;2023-09-08T03:09:21;101856.34;;;11.16;69.42
80644;BME280;70010;60.224;24.712;2023-09-08T03:11:46;101851.54;;;11.74;67.35
80644;BME280;70010;60.224;24.712;2023-09-08T03:14:11;101846.48;;;11.68;66.83
80644;BME280;70010;60.224;24.712;2023-09-08T03:16:37;101849.29;;;11.13;69.39
80644;BME280;70010;60.224;24.712;2023-09-08T03:19:02;101846.29;;;10.80;70.96
80644;BME280;70010;60.224;24.712;2023-09-08T03:21:27;101839.60;;;10.95;70.39
80644;BME280;70010;60.224;24.712;2023-09-08T03:23:52;101840.06;;;10.99;70.55
80644;BME280;70010;60.224;24.712;2023-09-08T03:26:18;101838.07;;;10.80;71.73
80644;BME280;70010;60.224;24.712;2023-09-08T03:28:43;101830.80;;;10.64;70.78
80644;BME280;70010;60.224;24.712;2023-09-08T03:31:08;101829.01;;;11.46;69.94
80644;BME280;70010;60.224;24.712;2023-09-08T03:33:34;101826.64;;;12.20;67.14
80644;BME280;70010;60.224;24.712;2023-09-08T03:35:59;101828.48;;;11.60;67.14
80644;BME280;70010;60.224;24.712;2023-09-08T03:38:24;101830.27;;;12.02;65.48
80644;BME280;70010;60.224;24.712;2023-09-08T03:40:49;101826.69;;;11.57;67.92
80644;BME280;70010;60.224;24.712;2023-09-08T03:43:14;101830.39;;;11.00;70.08
80644;BME280;70010;60.224;24.712;2023-09-08T03:45:40;101830.15;;;11.27;68.74
80644;BME280;70010;60.224;24.712;2023-09-08T03:48:06;101835.88;;;10.72;70.17
80644;BME280;70010;60.224;24.712;2023-09-08T03:50:30;101829.67;;;11.28;68.35
80644;BME280;70010;60.224;24.712;2023-09-08T03:52:55;101835.12;;;10.94;69.38
80644;BME280;70010;60.224;24.712;2023-09-08T03:55:20;101839.30;;;10.90;70.26
80644;BME280;70010;60.224;24.712;2023-09-08T03:57:46;101837.76;;;10.73;70.38
80644;BME280;70010;60.224;24.712;2023-09-08T04:00:12;101835.11;;;10.72;69.88
80644;BME280;70010;60.224;24.712;2023-09-08T04:02:36;101829.33;;;11.19;68.54
80644;BME280;70010;60.224;24.712;2023-09-08T04:05:02;101840.98;;;10.71;71.20
80644;BME280;70010;60.224;24.712;2023-09-08T04:07:27;101841.94;;;11.09;70.54
80644;BME280;70010;60.224;24.712;2023-09-08T04:09:52;101841.46;;;10.86;70.96
80644;BME280;70010;60.224;24.712;2023-09-08T04:12:18;101838.64;;;10.87;70.45
80644;BME280;70010;60.224;24.712;2023-09-08T04:14:42;101838.47;;;10.97;70.82
80644;BME280;70010;60.224;24.712;2023-09-08T04:17:08;101843.99;;;10.65;72.02
80644;BME280;70010;60.224;24.712;2023-09-08T04:19:33;101839.31;;;11.08;70.89
80644;BME280;70010;60.224;24.712;2023-09-08T04:21:58;101836.13;;;11.09;70.22
80644;BME280;70010;60.224;24.712;2023-09-08T04:24:23;101838.35;;;11.16;70.72
80644;BME280;70010;60.224;24.712;2023-09-08T04:26:49;101833.99;;;11.33;69.22
80644;BME280;70010;60.224;24.712;2023-09-08T04:29:14;101834.95;;;11.67;68.75
80644;BME280;70010;60.224;24.712;2023-09-08T04:31:40;101827.58;;;11.22;69.59
80644;BME280;70010;60.224;24.712;2023-09-08T04:34:05;101821.00;;;11.63;69.31
80644;BME280;70010;60.224;24.712;2023-09-08T04:36:30;101814.12;;;11.47;69.11
80644;BME280;70010;60.224;24.712;2023-09-08T04:38:55;101811.71;;;10.99;70.17
80644;BME280;70010;60.224;24.712;2023-09-08T04:41:21;101808.56;;;10.99;71.28
80644;BME280;70010;60.224;24.712;2023-09-08T04:43:46;101805.68;;;11.30;71.36
80644;BME280;70010;60.224;24.712;2023-09-08T04:46:11;101806.29;;;11.36;71.36
80644;BME280;70010;60.224;24.712;2023-09-08T04:48:36;101807.45;;;11.82;70.97
80644;BME280;70010;60.224;24.712;2023-09-08T04:51:02;101795.15;;;11.93;68.87
80644;BME280;70010;60.224;24.712;2023-09-08T04:53:27;101793.97;;;12.12;67.48
80644;BME280;70010;60.224;24.712;2023-09-08T04:55:52;101798.42;;;11.66;70.44
80644;BME280;70010;60.224;24.712;2023-09-08T04:58:18;101794.75;;;12.08;68.80
80644;BME280;70010;60.224;24.712;2023-09-08T05:00:43;101791.86;;;12.20;68.45
80644;BME280;70010;60.224;24.712;2023-09-08T05:03:08;101787.89;;;14.42;61.48
80644;BME280;70010;60.224;24.712;2023-09-08T05:05:33;101792.16;;;13.29;63.58
80644;BME280;70010;60.224;24.712;2023-09-08T05:07:59;101787.84;;;14.66;60.37
80644;BME280;70010;60.224;24.712;2023-09-08T05:10:24;101785.70;;;13.36;63.38
80644;BME280;70010;60.224;24.712;2023-09-08T05:12:49;101773.90;;;15.82;56.84
80644;BME280;70010;60.224;24.712;2023-09-08T05:15:15;101778.34;;;16.40;55.32
80644;BME280;70010;60.224;24.712;2023-09-08T05:17:40;101773.54;;;16.24;55.19
80644;BME280;70010;60.224;24.712;2023-09-08T05:20:07;101775.15;;;15.96;56.20
80644;BME280;70010;60.224;24.712;2023-09-08T05:22:31;101777.94;;;16.13;55.75
80644;BME280;70010;60.224;24.712;2023-09-08T05:24:56;101777.64;;;17.41;53.05
80644;BME280;70010;60.224;24.712;2023-09-08T05:27:21;101780.15;;;18.53;50.80
80644;BME280;70010;60.224;24.712;2023-09-08T05:29:46;101779.19;;;16.08;56.56
80644;BME280;70010;60.224;24.712;2023-09-08T05:32:11;101788.00;;;14.55;60.88
80644;BME280;70010;60.224;24.712;2023-09-08T05:34:37;101784.12;;;16.60;55.22
80644;BME280;70010;60.224;24.712;2023-09-08T05:37:02;101788.27;;;16.69;54.62
80644;BME280;70010;60.224;24.712;2023-09-08T05:39:27;101789.04;;;17.91;51.55
80644;BME280;70010;60.224;24.712;2023-09-08T05:41:52;101793.65;;;18.70;50.50
80644;BME280;70010;60.224;24.712;2023-09-08T05:44:17;101795.11;;;17.47;51.57
80644;BME280;70010;60.224;24.712;2023-09-08T05:46:43;101794.79;;;16.18;55.51
80644;BME280;70010;60.224;24.712;2023-09-08T05:49:08;101794.53;;;16.73;54.62
80644;BME280;70010;60.224;24.712;2023-09-08T05:51:33;101797.41;;;14.11;61.07
80644;BME280;70010;60.224;24.712;2023-09-08T05:53:58;101797.37;;;14.37;60.51
80644;BME280;70010;60.224;24.712;2023-09-08T05:56:24;101799.83;;;13.59;64.01
80644;BME280;70010;60.224;24.712;2023-09-08T05:58:49;101792.30;;;15.47;59.70
80644;BME280;70010;60.224;24.712;2023-09-08T06:01:15;101791.34;;;16.24;57.22
80644;BME280;70010;60.224;24.712;2023-09-08T06:03:40;101796.35;;;14.68;60.23
80644;BME280;70010;60.224;24.712;2023-09-08T06:06:05;101797.98;;;14.80;60.07
80644;BME280;70010;60.224;24.712;2023-09-08T06:08:31;101802.11;;;14.63;60.72
80644;BME280;70010;60.224;24.712;2023-09-08T06:10:56;101793.72;;;16.41;55.83
80644;BME280;70010;60.224;24.712;2023-09-08T06:13:21;101795.84;;;14.07;61.49
80644;BME280;70010;60.224;24.712;2023-09-08T06:15:46;101790.97;;;13.61;64.49
80644;BME280;70010;60.224;24.712;2023-09-08T06:18:12;101776.42;;;15.70;58.24
80644;BME280;70010;60.224;24.712;2023-09-08T06:20:37;101772.32;;;14.84;60.51
80644;BME280;70010;60.224;24.712;2023-09-08T06:23:02;101767.10;;;15.13;59.33
80644;BME280;70010;60.224;24.712;2023-09-08T06:25:27;101762.66;;;16.40;56.85
80644;BME280;70010;60.224;24.712;2023-09-08T06:27:52;101760.67;;;15.49;59.95
80644;BME280;70010;60.224;24.712;2023-09-08T06:30:18;101755.05;;;16.68;55.17
80644;BME280;70010;60.224;24.712;2023-09-08T06:32:43;101754.47;;;15.33;59.17
80644;BME280;70010;60.224;24.712;2023-09-08T06:35:08;101755.16;;;15.83;56.72
80644;BME280;70010;60.224;24.712;2023-09-08T06:37:35;101756.28;;;17.18;54.86
80644;BME280;70010;60.224;24.712;2023-09-08T06:39:59;101760.09;;;18.12;52.40
80644;BME280;70010;60.224;24.712;2023-09-08T06:42:24;101754.17;;;18.53;50.85
80644;BME280;70010;60.224;24.712;2023-09-08T06:44:49;101746.83;;;19.89;48.27
80644;BME280;70010;60.224;24.712;2023-09-08T06:47:14;101749.86;;;19.01;49.68
80644;BME280;70010;60.224;24.712;2023-09-08T06:49:39;101752.98;;;15.95;56.59
80644;BME280;70010;60.224;24.712;2023-09-08T06:52:05;101751.38;;;16.40;57.19
80644;BME280;70010;60.224;24.712;2023-09-08T06:54:30;101750.27;;;19.00;50.01
80644;BME280;70010;60.224;24.712;2023-09-08T06:56:55;101748.40;;;18.62;49.42
80644;BME280;70010;60.224;24.712;2023-09-08T06:59:20;101749.77;;;15.07;58.56
80644;BME280;70010;60.224;24.712;2023-09-08T07:01:46;101749.13;;;14.84;62.10
80644;BME280;70010;60.224;24.712;2023-09-08T07:04:11;101749.05;;;15.58;58.74
80644;BME280;70010;60.224;24.712;2023-09-08T07:06:37;101755.20;;;14.66;62.47
80644;BME280;70010;60.224;24.712;2023-09-08T07:09:02;101753.43;;;15.13;60.03
80644;BME280;70010;60.224;24.712;2023-09-08T07:11:27;101754.84;;;16.46;56.97
80644;BME280;70010;60.224;24.712;2023-09-08T07:13:52;101755.11;;;15.47;58.58
80644;BME280;70010;60.224;24.712;2023-09-08T07:16:18;101751.63;;;18.92;51.08
80644;BME280;70010;60.224;24.712;2023-09-08T07:18:43;101750.40;;;15.22;59.67
80644;BME280;70010;60.224;24.712;2023-09-08T07:21:08;101749.07;;;17.72;53.10
80644;BME280;70010;60.224;24.712;2023-09-08T07:23:33;101752.70;;;16.21;56.81
80644;BME280;70010;60.224;24.712;2023-09-08T07:25:58;101751.61;;;18.10;52.13
80644;BME280;70010;60.224;24.712;2023-09-08T07:28:24;101750.73;;;16.25;56.34
80644;BME280;70010;60.224;24.712;2023-09-08T07:30:49;101755.10;;;16.47;56.05
80644;BME280;70010;60.224;24.712;2023-09-08T07:33:14;101752.26;;;15.95;57.55
80644;BME280;70010;60.224;24.712;2023-09-08T07:35:40;101750.45;;;18.05;52.61
80644;BME280;70010;60.224;24.712;2023-09-08T07:38:06;101751.45;;;15.90;58.10
80644;BME280;70010;60.224;24.712;2023-09-08T07:40:32;101749.10;;;18.49;51.77
80644;BME280;70010;60.224;24.712;2023-09-08T07:42:55;101750.99;;;17.84;52.64
80644;BME280;70010;60.224;24.712;2023-09-08T07:45:21;101752.91;;;18.68;50.84
80644;BME280;70010;60.224;24.712;2023-09-08T07:47:46;101748.07;;;19.86;48.26
80644;BME280;70010;60.224;24.712;2023-09-08T07:50:16;101751.45;;;17.09;54.15
80644;BME280;70010;60.224;24.712;2023-09-08T07:52:36;101752.32;;;16.16;57.01
80644;BME280;70010;60.224;24.712;2023-09-08T07:55:02;101748.74;;;16.85;55.76
80644;BME280;70010;60.224;24.712;2023-09-08T07:57:27;101747.29;;;16.63;57.55
80644;BME280;70010;60.224;24.712;2023-09-08T07:59:52;101740.86;;;17.21;55.42
80644;BME280;70010;60.224;24.712;2023-09-08T08:02:18;101742.02;;;15.69;59.19
80644;BME280;70010;60.224;24.712;2023-09-08T08:04:43;101741.14;;;17.22;54.89
80644;BME280;70010;60.224;24.712;2023-09-08T08:07:08;101747.07;;;16.58;56.37
80644;BME280;70010;60.224;24.712;2023-09-08T08:09:33;101747.97;;;17.15;55.50
80644;BME280;70010;60.224;24.712;2023-09-08T08:11:59;101754.73;;;16.17;58.77
80644;BME280;70010;60.224;24.712;2023-09-08T08:14:24;101759.43;;;15.37;60.34
80644;BME280;70010;60.224;24.712;2023-09-08T08:16:49;101765.22;;;16.13;58.82
80644;BME280;70010;60.224;24.712;2023-09-08T08:19:15;101765.17;;;15.33;61.92
80644;BME280;70010;60.224;24.712;2023-09-08T08:21:40;101758.69;;;17.49;55.35
80644;BME280;70010;60.224;24.712;2023-09-08T08:24:06;101761.96;;;17.26;54.57
80644;BME280;70010;60.224;24.712;2023-09-08T08:26:31;101766.09;;;16.84;55.57
80644;BME280;70010;60.224;24.712;2023-09-08T08:28:56;101771.39;;;15.83;58.77
80644;BME280;70010;60.224;24.712;2023-09-08T08:31:21;101767.27;;;18.70;52.25
80644;BME280;70010;60.224;24.712;2023-09-08T08:33:46;101764.77;;;17.51;52.99
80644;BME280;70010;60.224;24.712;2023-09-08T08:36:12;101760.46;;;19.92;48.66
80644;BME280;70010;60.224;24.712;2023-09-08T08:38:37;101769.66;;;16.71;56.39
80644;BME280;70010;60.224;24.712;2023-09-08T08:41:03;101760.47;;;19.70;49.84
80644;BME280;70010;60.224;24.712;2023-09-08T08:43:28;101760.82;;;16.64;55.23
80644;BME280;70010;60.224;24.712;2023-09-08T08:45:54;101756.28;;;19.63;49.20
80644;BME280;70010;60.224;24.712;2023-09-08T08:48:20;101757.42;;;17.45;53.18
80644;BME280;70010;60.224;24.712;2023-09-08T08:50:43;101752.70;;;20.09;47.68
80644;BME280;70010;60.224;24.712;2023-09-08T08:53:10;101751.08;;;19.34;49.10
80644;BME280;70010;60.224;24.712;2023-09-08T08:55:35;101757.20;;;16.28;57.73
80644;BME280;70010;60.224;24.712;2023-09-08T08:58:03;101757.31;;;16.92;55.05
80644;BME280;70010;60.224;24.712;2023-09-08T09:00:25;101759.26;;;19.57;49.68
80644;BME280;70010;60.224;24.712;2023-09-08T09:02:51;101757.68;;;18.33;50.61
80644;BME280;70010;60.224;24.712;2023-09-08T09:05:16;101759.06;;;16.47;55.63
80644;BME280;70010;60.224;24.712;2023-09-08T09:07:43;101756.76;;;18.20;52.11
80644;BME280;70010;60.224;24.712;2023-09-08T09:10:08;101752.35;;;17.82;52.57
80644;BME280;70010;60.224;24.712;2023-09-08T09:12:33;101756.49;;;18.35;51.16
80644;BME280;70010;60.224;24.712;2023-09-08T09:14:59;101757.23;;;18.39;51.54
80644;BME280;70010;60.224;24.712;2023-09-08T09:17:23;101763.07;;;18.96;49.63
80644;BME280;70010;60.224;24.712;2023-09-08T09:19:49;101763.85;;;16.45;56.20
80644;BME280;70010;60.224;24.712;2023-09-08T09:22:14;101758.37;;;20.60;46.82
80644;BME280;70010;60.224;24.712;2023-09-08T09:24:40;101762.00;;;18.41;51.75
80644;BME280;70010;60.224;24.712;2023-09-08T09:27:05;101764.42;;;18.08;52.55
80644;BME280;70010;60.224;24.712;2023-09-08T09:29:30;101762.05;;;17.68;53.24
80644;BME280;70010;60.224;24.712;2023-09-08T09:31:56;101763.12;;;18.93;50.89
80644;BME280;70010;60.224;24.712;2023-09-08T09:34:20;101757.89;;;18.18;52.88
80644;BME280;70010;60.224;24.712;2023-09-08T09:36:45;101754.67;;;20.32;47.55
80644;BME280;70010;60.224;24.712;2023-09-08T09:39:10;101761.75;;;18.24;51.84
80644;BME280;70010;60.224;24.712;2023-09-08T09:41:35;101759.90;;;18.83;50.28
80644;BME280;70010;60.224;24.712;2023-09-08T09:44:01;101755.96;;;20.69;46.18
80644;BME280;70010;60.224;24.712;2023-09-08T09:46:28;101758.35;;;19.73;47.27
80644;BME280;70010;60.224;24.712;2023-09-08T09:48:52;101764.90;;;19.16;48.18
80644;BME280;70010;60.224;24.712;2023-09-08T09:51:16;101762.63;;;19.83;47.38
80644;BME280;70010;60.224;24.712;2023-09-08T09:53:41;101765.96;;;21.28;44.36
80644;BME280;70010;60.224;24.712;2023-09-08T09:56:07;101765.64;;;19.55;46.27
80644;BME280;70010;60.224;24.712;2023-09-08T09:58:33;101763.58;;;20.11;45.82
80644;BME280;70010;60.224;24.712;2023-09-08T10:00:58;101764.03;;;20.15;45.74
80644;BME280;70010;60.224;24.712;2023-09-08T10:03:23;101768.97;;;18.93;48.75
80644;BME280;70010;60.224;24.712;2023-09-08T10:05:48;101760.52;;;23.28;40.51
80644;BME280;70010;60.224;24.712;2023-09-08T10:08:14;101764.72;;;20.54;45.31
80644;BME280;70010;60.224;24.712;2023-09-08T10:10:39;101766.43;;;21.47;43.07
80644;BME280;70010;60.224;24.712;2023-09-08T10:13:06;101767.67;;;20.76;44.35
80644;BME280;70010;60.224;24.712;2023-09-08T10:15:31;101770.55;;;20.10;45.63
80644;BME280;70010;60.224;24.712;2023-09-08T10:17:56;101772.36;;;21.97;42.17
80644;BME280;70010;60.224;24.712;2023-09-08T10:20:22;101770.05;;;22.60;41.38
80644;BME280;70010;60.224;24.712;2023-09-08T10:22:46;101773.27;;;23.40;39.85
80644;BME280;70010;60.224;24.712;2023-09-08T10:25:12;101783.57;;;19.88;46.96
80644;BME280;70010;60.224;24.712;2023-09-08T10:27:36;101776.90;;;22.11;42.42
80644;BME280;70010;60.224;24.712;2023-09-08T10:30:03;101776.89;;;20.07;46.47
80644;BME280;70010;60.224;24.712;2023-09-08T10:32:28;101785.80;;;19.20;47.96
80644;BME280;70010;60.224;24.712;2023-09-08T10:34:53;101780.76;;;20.07;46.78
80644;BME280;70010;60.224;24.712;2023-09-08T10:37:19;101783.39;;;19.68;46.08
80644;BME280;70010;60.224;24.712;2023-09-08T10:39:44;101790.06;;;19.18;47.59
80644;BME280;70010;60.224;24.712;2023-09-08T10:44:34;101786.26;;;21.04;44.77
80644;BME280;70010;60.224;24.712;2023-09-08T10:46:59;101785.37;;;20.60;45.16
80644;BME280;70010;60.224;24.712;2023-09-08T10:49:24;101785.51;;;20.48;45.21
80644;BME280;70010;60.224;24.712;2023-09-08T10:51:50;101782.94;;;19.35;46.91
80644;BME280;70010;60.224;24.712;2023-09-08T10:56:49;101776.06;;;26.42;37.14
80644;BME280;70010;60.224;24.712;2023-09-08T10:59:05;101777.02;;;30.07;31.21
80644;BME280;70010;60.224;24.712;2023-09-08T11:01:31;101771.77;;;31.24;28.32
80644;BME280;70010;60.224;24.712;2023-09-08T11:03:57;101778.21;;;33.90;24.70
80644;BME280;70010;60.224;24.712;2023-09-08T11:06:22;101789.44;;;26.60;32.44
80644;BME280;70010;60.224;24.712;2023-09-08T11:08:47;101780.55;;;32.62;27.01
80644;BME280;70010;60.224;24.712;2023-09-08T11:11:13;101777.67;;;35.39;23.84
80644;BME280;70010;60.224;24.712;2023-09-08T11:13:38;101777.93;;;32.32;25.41
80644;BME280;70010;60.224;24.712;2023-09-08T11:16:04;101777.72;;;31.95;26.17
80644;BME280;70010;60.224;24.712;2023-09-08T11:18:29;101775.51;;;34.76;22.92
80644;BME280;70010;60.224;24.712;2023-09-08T11:20:54;101772.02;;;36.05;21.95
80644;BME280;70010;60.224;24.712;2023-09-08T11:23:20;101780.85;;;30.40;26.65
80644;BME280;70010;60.224;24.712;2023-09-08T11:25:45;101780.95;;;29.14;28.50
80644;BME280;70010;60.224;24.712;2023-09-08T11:28:10;101777.15;;;32.51;25.67
80644;BME280;70010;60.224;24.712;2023-09-08T11:30:35;101779.28;;;30.82;27.40
80644;BME280;70010;60.224;24.712;2023-09-08T11:33:00;101775.29;;;34.56;23.42
80644;BME280;70010;60.224;24.712;2023-09-08T11:35:27;101779.42;;;30.67;26.90
80644;BME280;70010;60.224;24.712;2023-09-08T11:37:51;101779.53;;;31.36;26.92
80644;BME280;70010;60.224;24.712;2023-09-08T11:40:16;101779.01;;;34.48;23.65
80644;BME280;70010;60.224;24.712;2023-09-08T11:42:43;101786.44;;;33.59;24.02
80644;BME280;70010;60.224;24.712;2023-09-08T11:45:07;101787.72;;;36.55;21.06
80644;BME280;70010;60.224;24.712;2023-09-08T11:47:32;101786.50;;;36.67;21.23
80644;BME280;70010;60.224;24.712;2023-09-08T11:49:57;101786.08;;;36.56;21.00
80644;BME280;70010;60.224;24.712;2023-09-08T11:52:23;101778.77;;;37.42;20.08
80644;BME280;70010;60.224;24.712;2023-09-08T11:54:47;101789.83;;;30.45;26.33
80644;BME280;70010;60.224;24.712;2023-09-08T11:57:13;101783.73;;;36.21;21.79
80644;BME280;70010;60.224;24.712;2023-09-08T11:59:38;101788.50;;;37.57;19.96
80644;BME280;70010;60.224;24.712;2023-09-08T12:02:03;101795.06;;;33.52;23.19
80644;BME280;70010;60.224;24.712;2023-09-08T12:04:29;101784.76;;;27.38;29.00
80644;BME280;70010;60.224;24.712;2023-09-08T12:06:54;101784.60;;;24.91;32.71
80644;BME280;70010;60.224;24.712;2023-09-08T12:09:21;101786.00;;;26.76;31.72
80644;BME280;70010;60.224;24.712;2023-09-08T12:11:44;101782.24;;;29.51;28.52
80644;BME280;70010;60.224;24.712;2023-09-08T12:14:11;101782.75;;;25.53;32.35
80644;BME280;70010;60.224;24.712;2023-09-08T12:16:35;101790.65;;;21.55;39.00
80644;BME280;70010;60.224;24.712;2023-09-08T12:19:00;101793.50;;;23.65;36.44
80644;BME280;70010;60.224;24.712;2023-09-08T12:21:25;101788.44;;;24.84;34.10
80644;BME280;70010;60.224;24.712;2023-09-08T12:23:52;101787.47;;;24.22;34.72
80644;BME280;70010;60.224;24.712;2023-09-08T12:26:16;101790.91;;;22.71;37.28
80644;BME280;70010;60.224;24.712;2023-09-08T12:28:41;101795.13;;;23.08;36.93
80644;BME280;70010;60.224;24.712;2023-09-08T12:31:07;101794.40;;;34.47;23.93
80644;BME280;70010;60.224;24.712;2023-09-08T12:33:32;101786.95;;;24.95;32.14